Main page
METAR-TAF:

METAR-TAF

Airports :

Ibiza, Spain

Ibiza Airport

latitude: 38-52N, longitude: 001-23E, elevation: 7 m

Current weather observation

The report was made 11 minutes ago, at 04:30 UTC
Wind 2 kt from variable directions
Temperature 11°C
Humidity 87%
Pressure 1013 hPa
Visibility 10 km or more
no clouds below 1500 m and no cumulonimbus

METAR: LEIB 270430Z VRB02KT CAVOK 11/09 Q1013 NOSIG

Time: 06:41 (04:41 UTC)

Forecast

The report was made 2 hours and 41 minutes ago, at 02:00 UTC
Forecast valid from 27 at 03 UTC to 28 at 03 UTC
Wind 3 kt from variable directions
Visibility 10 km or more
Few clouds at a height of 2000 ft
Temporary
from 27 at 03 UTC to 27 at 06 UTC
Wind 7 kt from the Northwest
Becoming
from 27 at 08 UTC to 27 at 10 UTC
Wind 13 kt from the South/Southwest
Becoming
from 27 at 18 UTC to 27 at 20 UTC
Wind 5 kt from the South/Southwest

TAF: LEIB 270200Z 2703/2803 VRB03KT 9999 FEW020 TX21/2712Z TN12/2706Z TEMPO 2703/2706 32007KT BECMG 2708/2710 21013KT BECMG 2718/2720 21005KT

Weather observations and forecasts of more than 4000 airports (METAR and TAF reports).

The available stations are represented by yellow and red dots on the map.

Hover mouse over dot to see the name of the station.

Then click to see weather observations and forecasts.

To change the map : click on the green buttons with a black cross to zoom in, on the green button with a dash to zoom out, or on the green arrows for adjacent maps.


METAR-TAF: